Time;durP1;ratioP1;P1;durP2;ratioP2;P2;SDS_P1;SDS_P2;PMS_P1;PMS_P2;Temp;Humidity;BMP_temperature;BMP_pressure;BME280_temperature;BME280_humidity;BME280_pressure;Samples;Min_cycle;Max_cycle;Signal;HPM_P1;HPM_P2
2023/11/19 00:00:17;;;;;;;0.57;0.50;;;19.30;58.30;;;;;;5020138;28;20018;-67
2023/11/19 00:02:43;;;;;;;0.65;0.65;;;19.30;58.40;;;;;;5018360;28;20037;-67
2023/11/19 00:05:11;;;;;;;0.77;0.60;;;19.30;58.40;;;;;;5018076;28;20026;-67
2023/11/19 00:07:41;;;;;;;0.98;0.57;;;19.30;58.30;;;;;;5035521;28;20099;-66
2023/11/19 00:10:09;;;;;;;1.17;0.60;;;19.30;58.40;;;;;;5020014;28;20033;-67
2023/11/19 00:12:36;;;;;;;1.33;0.68;;;19.30;58.40;;;;;;5020472;28;20029;-67
2023/11/19 00:15:02;;;;;;;2.05;0.60;;;19.30;58.30;;;;;;5019645;28;20049;-70
2023/11/19 00:17:27;;;;;;;0.55;0.55;;;19.30;58.40;;;;;;5019089;28;20057;-70
2023/11/19 00:19:53;;;;;;;0.50;0.50;;;19.30;58.40;;;;;;5015974;28;20026;-69
2023/11/19 00:22:21;;;;;;;0.43;0.40;;;19.30;58.40;;;;;;5020331;28;20429;-70
2023/11/19 00:24:46;;;;;;;0.60;0.60;;;19.30;58.30;;;;;;5016662;28;20907;-70
2023/11/19 00:27:12;;;;;;;0.80;0.60;;;19.30;58.40;;;;;;5017204;28;20123;-70
2023/11/19 00:29:38;;;;;;;0.70;0.50;;;19.20;58.30;;;;;;5017556;28;20032;-69
2023/11/19 00:32:05;;;;;;;0.50;0.40;;;19.30;58.30;;;;;;5018681;28;20052;-69
2023/11/19 00:34:31;;;;;;;0.52;0.52;;;19.30;58.30;;;;;;5015621;28;20044;-67
2023/11/19 00:36:56;;;;;;;0.52;0.52;;;19.30;58.30;;;;;;5019250;28;20037;-67
2023/11/19 00:39:22;;;;;;;0.50;0.50;;;19.30;58.40;;;;;;5018196;28;20442;-67
2023/11/19 00:41:48;;;;;;;0.55;0.50;;;19.30;58.30;;;;;;5019453;28;20025;-67
2023/11/19 00:44:14;;;;;;;0.50;0.50;;;19.20;58.30;;;;;;5017734;28;20593;-66
2023/11/19 00:46:40;;;;;;;0.52;0.52;;;19.30;58.30;;;;;;5016786;28;20124;-67
2023/11/19 00:49:05;;;;;;;0.50;0.50;;;19.20;58.30;;;;;;5016155;28;20443;-67
2023/11/19 00:51:31;;;;;;;1.20;0.60;;;19.20;58.30;;;;;;5018714;28;20040;-66
2023/11/19 00:53:57;;;;;;;0.47;0.47;;;19.20;58.30;;;;;;5018088;28;20424;-67
2023/11/19 00:56:24;;;;;;;0.80;0.60;;;19.30;58.30;;;;;;5019030;28;20029;-67
2023/11/19 00:58:49;;;;;;;0.55;0.55;;;19.20;58.30;;;;;;5018458;28;20049;-67
2023/11/19 01:01:15;;;;;;;1.25;0.60;;;19.20;58.30;;;;;;5017980;28;20030;-67
2023/11/19 01:03:40;;;;;;;0.50;0.50;;;19.20;58.30;;;;;;5019926;28;20104;-67
2023/11/19 01:06:08;;;;;;;0.50;0.50;;;19.20;58.30;;;;;;5015553;28;20084;-66
2023/11/19 01:08:35;;;;;;;0.55;0.50;;;19.20;58.30;;;;;;5016778;28;20117;-66
2023/11/19 01:11:02;;;;;;;0.85;0.50;;;19.20;58.30;;;;;;5015726;28;20557;-66
2023/11/19 01:13:27;;;;;;;0.50;0.50;;;19.20;58.30;;;;;;5018553;28;20030;-69
2023/11/19 01:15:53;;;;;;;0.50;0.50;;;19.20;58.30;;;;;;5017499;28;20030;-69
2023/11/19 01:18:19;;;;;;;0.85;0.70;;;19.20;58.30;;;;;;5019885;28;20106;-69
2023/11/19 01:20:44;;;;;;;0.60;0.55;;;19.20;58.30;;;;;;5014105;28;20063;-70
2023/11/19 01:23:11;;;;;;;0.60;0.50;;;19.20;58.30;;;;;;5017710;28;20482;-66
2023/11/19 01:25:38;;;;;;;0.73;0.60;;;19.20;58.30;;;;;;5016887;28;20546;-66
2023/11/19 01:28:04;;;;;;;0.50;0.50;;;19.20;58.30;;;;;;5015476;28;20026;-67
2023/11/19 01:30:30;;;;;;;0.75;0.60;;;19.20;58.30;;;;;;5017764;28;20027;-66
2023/11/19 01:32:56;;;;;;;0.50;0.50;;;19.20;58.30;;;;;;5018957;28;20470;-66
2023/11/19 01:35:23;;;;;;;0.50;0.50;;;19.20;58.30;;;;;;5015042;28;20030;-66
2023/11/19 01:37:48;;;;;;;0.70;0.60;;;19.20;58.30;;;;;;5017875;28;20069;-66
2023/11/19 01:40:15;;;;;;;0.82;0.57;;;19.20;58.30;;;;;;5017519;28;20446;-67
2023/11/19 01:42:41;;;;;;;0.50;0.50;;;19.20;58.30;;;;;;5018692;28;20018;-67
2023/11/19 01:45:09;;;;;;;1.00;0.70;;;19.20;58.30;;;;;;5018304;28;20037;-67
2023/11/19 01:47:35;;;;;;;0.40;0.40;;;19.20;58.20;;;;;;5017097;28;20623;-66
2023/11/19 01:50:05;;;;;;;0.60;0.52;;;19.20;58.30;;;;;;5015804;28;20538;-66
2023/11/19 01:52:34;;;;;;;0.65;0.50;;;19.20;58.30;;;;;;5017753;28;20390;-67
2023/11/19 01:55:00;;;;;;;0.57;0.57;;;19.20;58.30;;;;;;5016832;28;20470;-67
2023/11/19 01:57:26;;;;;;;0.60;0.60;;;19.20;58.30;;;;;;5020906;28;20508;-66
2023/11/19 01:59:53;;;;;;;0.95;0.60;;;19.20;58.30;;;;;;5019979;28;20018;-67
2023/11/19 02:02:20;;;;;;;0.75;0.60;;;19.20;58.30;;;;;;5021581;28;20022;-66
2023/11/19 02:04:48;;;;;;;0.50;0.50;;;19.20;58.30;;;;;;5017378;28;20033;-66
2023/11/19 02:07:14;;;;;;;0.57;0.55;;;19.20;58.30;;;;;;5021901;28;20075;-67
2023/11/19 02:09:43;;;;;;;0.73;0.50;;;19.20;58.30;;;;;;5021537;28;20036;-66
2023/11/19 02:12:11;;;;;;;0.57;0.57;;;19.20;58.30;;;;;;5021151;28;20576;-67
2023/11/19 02:14:37;;;;;;;0.50;0.50;;;19.20;58.30;;;;;;5020494;28;20021;-67
2023/11/19 02:17:03;;;;;;;0.50;0.50;;;19.20;58.20;;;;;;5021241;28;20072;-66
2023/11/19 02:19:29;;;;;;;0.60;0.52;;;19.20;58.30;;;;;;5020652;28;20056;-66
2023/11/19 02:21:55;;;;;;;0.57;0.50;;;19.20;58.30;;;;;;5018304;28;20104;-66
2023/11/19 02:24:25;;;;;;;0.40;0.40;;;19.20;58.30;;;;;;5020967;28;20033;-66
2023/11/19 02:27:14;;;;;;;0.77;0.50;;;19.20;58.30;;;;;;5020207;28;20432;-66
2023/11/19 02:29:39;;;;;;;0.52;0.43;;;19.20;58.30;;;;;;5021757;28;20112;-66
2023/11/19 02:32:05;;;;;;;0.60;0.47;;;19.20;58.30;;;;;;5018819;28;20594;-66
2023/11/19 02:34:31;;;;;;;0.70;0.68;;;19.20;58.30;;;;;;5019295;28;20030;-66
2023/11/19 02:36:57;;;;;;;0.60;0.60;;;19.20;58.20;;;;;;5017340;28;20042;-66
2023/11/19 02:39:22;;;;;;;0.68;0.57;;;19.20;58.30;;;;;;5020211;28;20184;-66
2023/11/19 02:41:52;;;;;;;0.60;0.60;;;19.20;58.30;;;;;;5035149;28;20082;-66
2023/11/19 02:44:18;;;;;;;0.50;0.50;;;19.20;58.30;;;;;;5020189;28;20037;-66
2023/11/19 02:46:44;;;;;;;0.40;0.40;;;19.20;58.30;;;;;;5017623;28;20052;-66
2023/11/19 02:49:09;;;;;;;0.55;0.55;;;19.20;58.30;;;;;;5022133;28;20038;-66
2023/11/19 02:51:35;;;;;;;0.50;0.50;;;19.20;58.30;;;;;;5018839;28;20038;-66
2023/11/19 02:54:03;;;;;;;0.68;0.60;;;19.20;58.30;;;;;;5021267;28;20037;-65
2023/11/19 02:56:34;;;;;;;0.60;0.60;;;19.20;58.80;;;;;;5018309;28;20022;-65
2023/11/19 02:59:03;;;;;;;0.70;0.60;;;19.20;58.30;;;;;;5017658;28;20028;-67
2023/11/19 03:01:33;;;;;;;0.50;0.45;;;19.20;58.30;;;;;;5019510;28;20097;-66
2023/11/19 03:04:01;;;;;;;0.80;0.60;;;19.20;58.30;;;;;;5019731;28;20029;-66
2023/11/19 03:06:28;;;;;;;0.50;0.50;;;19.10;58.30;;;;;;5018480;28;20359;-66
2023/11/19 03:08:54;;;;;;;0.47;0.47;;;19.10;58.30;;;;;;5020350;28;20469;-66
2023/11/19 03:11:20;;;;;;;0.47;0.47;;;19.10;58.30;;;;;;5017638;28;20029;-67
2023/11/19 03:13:46;;;;;;;0.55;0.55;;;19.10;58.30;;;;;;5020893;28;20482;-66
2023/11/19 03:16:12;;;;;;;0.50;0.50;;;19.10;58.30;;;;;;5002277;28;20029;-66
2023/11/19 03:18:39;;;;;;;0.65;0.60;;;19.10;58.30;;;;;;5020746;28;20026;-67
2023/11/19 03:21:07;;;;;;;0.50;0.50;;;19.10;58.30;;;;;;5019705;28;20390;-66
2023/11/19 03:23:33;;;;;;;0.40;0.40;;;19.10;58.30;;;;;;5020518;28;20055;-67
2023/11/19 03:26:01;;;;;;;0.80;0.65;;;19.10;58.30;;;;;;5019300;28;20310;-66
2023/11/19 03:28:27;;;;;;;0.80;0.60;;;19.10;58.30;;;;;;5022281;28;20064;-66
2023/11/19 03:30:53;;;;;;;0.50;0.50;;;19.10;58.30;;;;;;5018681;28;20029;-66
2023/11/19 03:33:18;;;;;;;0.52;0.52;;;19.10;58.30;;;;;;5020366;28;20026;-66
2023/11/19 03:35:44;;;;;;;0.43;0.38;;;19.10;58.30;;;;;;5016242;28;20024;-66
2023/11/19 03:38:09;;;;;;;0.30;0.30;;;19.10;58.30;;;;;;5017273;28;20032;-67
2023/11/19 03:40:35;;;;;;;0.50;0.50;;;19.10;58.30;;;;;;5018650;28;20080;-67
2023/11/19 03:43:01;;;;;;;0.63;0.52;;;19.10;58.30;;;;;;5017628;28;20076;-66
2023/11/19 03:45:27;;;;;;;0.50;0.50;;;19.10;58.30;;;;;;5018531;28;20021;-70
2023/11/19 03:47:52;;;;;;;0.50;0.50;;;19.10;58.30;;;;;;5019568;28;20022;-69
2023/11/19 03:50:20;;;;;;;0.50;0.50;;;19.10;58.30;;;;;;5019824;28;20504;-69
2023/11/19 03:52:46;;;;;;;0.60;0.52;;;19.10;58.30;;;;;;5019115;28;20053;-69
2023/11/19 03:55:12;;;;;;;0.40;0.40;;;19.10;58.30;;;;;;5020217;28;20032;-69
2023/11/19 03:57:38;;;;;;;0.50;0.50;;;19.10;58.30;;;;;;5018711;28;20021;-69
2023/11/19 04:00:11;;;;;;;0.40;0.40;;;19.10;58.30;;;;;;5019335;28;20090;-69
2023/11/19 04:02:37;;;;;;;0.80;0.50;;;19.10;58.30;;;;;;5017742;28;20449;-70
2023/11/19 04:05:04;;;;;;;0.60;0.60;;;19.10;58.30;;;;;;5019634;28;20027;-65
2023/11/19 04:07:31;;;;;;;0.95;0.60;;;19.10;58.30;;;;;;5017782;28;20024;-66
2023/11/19 04:09:57;;;;;;;0.50;0.50;;;19.10;58.30;;;;;;5020225;28;20066;-66
2023/11/19 04:12:22;;;;;;;0.40;0.40;;;19.10;58.30;;;;;;5019959;28;20116;-66
2023/11/19 04:14:48;;;;;;;0.70;0.55;;;19.10;58.30;;;;;;5003138;28;20442;-65
2023/11/19 04:17:13;;;;;;;0.65;0.57;;;19.10;58.30;;;;;;5018235;28;20075;-66
2023/11/19 04:19:41;;;;;;;0.60;0.50;;;19.10;58.30;;;;;;5018065;28;20033;-66
2023/11/19 04:22:08;;;;;;;0.40;0.40;;;19.10;58.30;;;;;;5015846;28;20540;-66
2023/11/19 04:24:34;;;;;;;0.63;0.50;;;19.10;58.40;;;;;;5018729;28;20044;-66
2023/11/19 04:26:59;;;;;;;0.50;0.50;;;19.10;58.40;;;;;;5018607;28;20026;-65
2023/11/19 04:29:25;;;;;;;0.75;0.60;;;19.10;58.40;;;;;;5017761;28;20497;-66
2023/11/19 04:31:50;;;;;;;0.50;0.50;;;19.10;58.40;;;;;;5020311;28;20036;-66
2023/11/19 04:34:16;;;;;;;0.38;0.38;;;19.10;58.40;;;;;;5032333;28;20029;-65
2023/11/19 04:36:43;;;;;;;0.40;0.40;;;19.00;58.40;;;;;;5016921;28;20045;-66
2023/11/19 04:39:09;;;;;;;0.70;0.50;;;19.00;58.40;;;;;;5017663;28;20500;-66
2023/11/19 04:41:36;;;;;;;0.47;0.40;;;19.10;58.50;;;;;;5019761;28;20033;-66
2023/11/19 04:44:01;;;;;;;0.50;0.50;;;19.10;58.40;;;;;;5017675;28;20030;-66
2023/11/19 04:46:27;;;;;;;0.50;0.50;;;19.10;58.40;;;;;;5017647;28;20030;-66
2023/11/19 04:48:53;;;;;;;0.70;0.60;;;19.00;58.40;;;;;;5018701;28;20034;-66
2023/11/19 04:51:18;;;;;;;0.90;0.40;;;19.00;58.40;;;;;;5016631;28;20026;-65
2023/11/19 04:53:44;;;;;;;0.93;0.60;;;19.00;58.50;;;;;;5018605;28;20040;-66
2023/11/19 04:56:13;;;;;;;0.50;0.50;;;19.00;58.40;;;;;;5034964;28;20033;-66
2023/11/19 04:58:39;;;;;;;0.52;0.52;;;19.00;58.50;;;;;;5018254;28;20029;-66
2023/11/19 05:01:04;;;;;;;0.70;0.50;;;19.10;58.70;;;;;;5016849;28;20401;-66
2023/11/19 05:03:31;;;;;;;0.50;0.50;;;19.10;58.60;;;;;;5017570;28;20025;-66
2023/11/19 05:05:57;;;;;;;0.60;0.60;;;19.10;58.60;;;;;;5018081;28;20457;-66
2023/11/19 05:08:22;;;;;;;0.50;0.47;;;19.10;58.60;;;;;;5015192;28;20049;-66
2023/11/19 05:10:48;;;;;;;0.73;0.60;;;19.00;58.50;;;;;;5033382;28;20144;-66
2023/11/19 05:13:15;;;;;;;0.52;0.52;;;19.10;58.60;;;;;;5020817;28;20026;-65
2023/11/19 05:15:40;;;;;;;1.02;0.50;;;19.10;58.70;;;;;;5019824;28;20030;-66
2023/11/19 05:18:06;;;;;;;0.70;0.60;;;19.00;58.60;;;;;;5016568;28;20052;-66
2023/11/19 05:20:32;;;;;;;0.40;0.40;;;19.00;58.60;;;;;;5019391;28;20462;-66
2023/11/19 05:23:00;;;;;;;0.50;0.50;;;19.00;58.70;;;;;;5001399;28;20025;-67
2023/11/19 05:25:26;;;;;;;0.70;0.60;;;19.00;58.60;;;;;;5016743;28;20065;-67
2023/11/19 05:27:52;;;;;;;0.40;0.40;;;19.00;58.60;;;;;;5019058;28;20512;-66
2023/11/19 05:30:18;;;;;;;0.40;0.40;;;19.00;58.70;;;;;;5019768;28;20128;-66
2023/11/19 05:32:44;;;;;;;0.40;0.40;;;19.00;59.20;;;;;;5018535;28;20398;-67
2023/11/19 05:35:09;;;;;;;0.50;0.50;;;19.00;58.70;;;;;;5020934;28;20029;-67
2023/11/19 05:37:35;;;;;;;0.40;0.40;;;19.00;58.70;;;;;;5033237;28;20493;-66
2023/11/19 05:40:03;;;;;;;0.50;0.50;;;19.00;58.70;;;;;;5022722;28;20491;-67
2023/11/19 05:42:29;;;;;;;0.45;0.45;;;19.00;58.70;;;;;;5019802;28;20382;-66
2023/11/19 05:44:54;;;;;;;0.70;0.50;;;19.00;58.70;;;;;;5022326;28;20026;-66
2023/11/19 05:47:20;;;;;;;0.50;0.50;;;19.00;58.70;;;;;;5022194;28;20021;-66
2023/11/19 05:49:46;;;;;;;0.40;0.40;;;19.00;58.80;;;;;;5022290;28;20021;-67
2023/11/19 05:52:12;;;;;;;0.50;0.50;;;19.00;58.80;;;;;;5018713;28;20524;-66
2023/11/19 05:54:38;;;;;;;0.50;0.50;;;19.00;58.80;;;;;;5022754;28;20046;-67
2023/11/19 05:57:10;;;;;;;0.57;0.50;;;19.00;58.70;;;;;;5020365;28;20025;-66
2023/11/19 05:59:36;;;;;;;0.50;0.50;;;19.00;58.80;;;;;;5020174;28;20029;-65
2023/11/19 06:02:05;;;;;;;0.43;0.40;;;19.00;58.80;;;;;;5020657;28;20478;-65
2023/11/19 06:04:30;;;;;;;0.50;0.50;;;19.00;58.80;;;;;;5019994;28;20026;-65
2023/11/19 06:06:56;;;;;;;0.45;0.40;;;19.00;58.80;;;;;;5018829;28;20038;-66
2023/11/19 06:09:24;;;;;;;0.50;0.50;;;19.00;58.80;;;;;;5018775;28;20512;-66
2023/11/19 06:11:52;;;;;;;0.50;0.50;;;19.00;58.90;;;;;;5020766;28;20034;-66
2023/11/19 06:14:18;;;;;;;0.40;0.40;;;19.00;58.80;;;;;;5019890;28;20473;-66
2023/11/19 06:16:44;;;;;;;0.43;0.40;;;19.00;58.80;;;;;;5020967;28;20136;-67
2023/11/19 06:19:10;;;;;;;0.45;0.45;;;19.00;58.90;;;;;;5022928;28;20549;-66
2023/11/19 06:21:36;;;;;;;0.40;0.40;;;19.00;58.80;;;;;;5019751;28;20079;-67
2023/11/19 06:24:03;;;;;;;0.63;0.60;;;19.00;58.90;;;;;;5020741;28;20033;-66
2023/11/19 06:26:29;;;;;;;0.50;0.50;;;19.00;58.80;;;;;;5004016;28;20017;-67
2023/11/19 06:28:54;;;;;;;0.50;0.50;;;19.00;58.90;;;;;;5020220;28;20045;-66
2023/11/19 06:31:20;;;;;;;0.70;0.50;;;19.00;59.00;;;;;;5021587;28;20044;-66
2023/11/19 06:33:46;;;;;;;0.65;0.50;;;19.00;58.90;;;;;;5020270;28;20030;-65
2023/11/19 06:36:16;;;;;;;0.50;0.40;;;19.00;58.90;;;;;;5019917;28;20026;-66
2023/11/19 06:38:42;;;;;;;0.45;0.45;;;19.00;58.90;;;;;;5018583;28;20029;-65
2023/11/19 06:41:11;;;;;;;0.45;0.45;;;19.00;58.90;;;;;;5020074;28;20025;-66
2023/11/19 06:43:37;;;;;;;0.68;0.50;;;19.00;58.90;;;;;;5019122;28;20195;-66
2023/11/19 06:46:05;;;;;;;0.40;0.40;;;19.00;58.90;;;;;;5017144;28;20186;-66
2023/11/19 06:48:32;;;;;;;0.60;0.50;;;19.00;58.90;;;;;;5019411;28;20032;-66
2023/11/19 06:50:59;;;;;;;0.47;0.47;;;19.00;59.00;;;;;;5020292;28;20383;-67
2023/11/19 06:53:24;;;;;;;0.50;0.50;;;19.00;58.90;;;;;;5019961;28;20034;-66
2023/11/19 06:55:50;;;;;;;0.50;0.50;;;19.00;58.90;;;;;;5019294;28;20032;-66
2023/11/19 06:58:17;;;;;;;0.65;0.50;;;19.00;58.90;;;;;;5021615;28;20406;-65
2023/11/19 07:00:43;;;;;;;0.50;0.50;;;19.00;58.90;;;;;;5018596;28;20240;-65
2023/11/19 07:03:09;;;;;;;0.50;0.50;;;19.00;59.00;;;;;;5019442;28;20541;-66
2023/11/19 07:05:38;;;;;;;0.82;0.50;;;19.00;58.90;;;;;;5003224;28;20029;-66
2023/11/19 07:08:07;;;;;;;0.50;0.50;;;19.00;59.00;;;;;;5013543;28;20021;-67
2023/11/19 07:10:33;;;;;;;0.73;0.60;;;19.00;58.90;;;;;;5018073;28;20064;-66
2023/11/19 07:12:59;;;;;;;0.50;0.50;;;19.00;58.90;;;;;;5020084;28;20026;-66
2023/11/19 07:15:24;;;;;;;0.47;0.43;;;19.00;58.90;;;;;;5019494;28;20430;-66
2023/11/19 07:17:50;;;;;;;0.70;0.47;;;19.00;58.90;;;;;;5022589;28;20030;-66
2023/11/19 07:20:16;;;;;;;0.57;0.50;;;19.00;58.90;;;;;;5019454;28;20097;-66
2023/11/19 07:22:47;;;;;;;0.40;0.40;;;19.00;59.00;;;;;;5019206;28;20481;-67
2023/11/19 07:25:13;;;;;;;0.75;0.50;;;19.00;59.00;;;;;;5020360;28;20486;-67
2023/11/19 07:27:39;;;;;;;0.50;0.50;;;19.00;59.00;;;;;;5020232;28;20022;-67
2023/11/19 07:30:07;;;;;;;0.50;0.50;;;19.00;59.00;;;;;;5019758;28;20092;-67
2023/11/19 07:32:33;;;;;;;0.45;0.45;;;19.00;59.00;;;;;;5020492;28;20025;-67
2023/11/19 07:34:59;;;;;;;0.50;0.50;;;19.00;59.00;;;;;;5018356;28;20065;-66
2023/11/19 07:37:25;;;;;;;0.73;0.52;;;19.00;59.50;;;;;;5001662;28;20129;-66
2023/11/19 07:39:50;;;;;;;0.38;0.38;;;19.00;59.00;;;;;;5020459;28;20057;-66
2023/11/19 07:42:16;;;;;;;0.40;0.40;;;19.00;59.00;;;;;;5018142;28;20057;-66
2023/11/19 07:44:42;;;;;;;0.70;0.50;;;19.00;59.00;;;;;;5020134;28;20374;-66
2023/11/19 07:47:08;;;;;;;0.60;0.50;;;19.00;59.00;;;;;;5020594;28;20033;-66
2023/11/19 07:49:34;;;;;;;0.40;0.40;;;19.00;59.00;;;;;;5020590;28;20436;-66
2023/11/19 07:51:59;;;;;;;0.50;0.50;;;19.00;59.00;;;;;;5019372;28;20022;-66
2023/11/19 07:54:25;;;;;;;0.40;0.40;;;19.00;59.00;;;;;;5015253;28;20038;-65
2023/11/19 07:56:51;;;;;;;0.40;0.40;;;19.00;59.00;;;;;;5020040;28;20021;-66
2023/11/19 07:59:17;;;;;;;0.50;0.50;;;19.00;59.00;;;;;;5019408;28;20033;-66
2023/11/19 08:01:42;;;;;;;0.40;0.40;;;19.00;59.00;;;;;;5019121;28;20152;-65
2023/11/19 08:04:08;;;;;;;0.88;0.60;;;19.00;59.00;;;;;;5020807;28;20472;-66
2023/11/19 08:06:34;;;;;;;0.50;0.50;;;19.00;59.00;;;;;;5019418;28;20017;-66
2023/11/19 08:08:59;;;;;;;0.45;0.45;;;19.00;59.00;;;;;;5019008;28;20367;-65
2023/11/19 08:11:25;;;;;;;0.45;0.40;;;19.00;58.90;;;;;;5019971;28;20514;-65
2023/11/19 08:13:51;;;;;;;0.40;0.40;;;19.00;59.00;;;;;;5019443;28;20064;-66
2023/11/19 08:16:16;;;;;;;0.57;0.50;;;19.00;59.00;;;;;;5019629;28;20568;-65
2023/11/19 08:18:43;;;;;;;0.40;0.40;;;19.00;59.00;;;;;;5019363;28;20095;-66
2023/11/19 08:21:09;;;;;;;0.40;0.40;;;19.00;59.00;;;;;;5019861;28;20034;-66
2023/11/19 08:23:35;;;;;;;0.40;0.40;;;19.00;59.00;;;;;;5015856;28;20025;-66
2023/11/19 08:26:01;;;;;;;0.50;0.45;;;19.00;59.00;;;;;;5017816;28;20029;-66
2023/11/19 08:28:27;;;;;;;0.60;0.50;;;19.00;59.00;;;;;;5019742;28;20033;-69
2023/11/19 08:30:53;;;;;;;0.40;0.40;;;19.00;59.00;;;;;;5017306;28;20033;-69
2023/11/19 08:33:18;;;;;;;0.40;0.40;;;19.00;59.00;;;;;;5019955;28;20026;-69
2023/11/19 08:35:45;;;;;;;0.50;0.50;;;19.00;59.00;;;;;;5020204;28;20037;-69
2023/11/19 08:38:10;;;;;;;0.40;0.40;;;19.00;59.00;;;;;;4999300;28;20045;-69
2023/11/19 08:40:38;;;;;;;0.35;0.35;;;19.00;59.00;;;;;;5018022;28;20437;-70
2023/11/19 08:43:04;;;;;;;0.40;0.40;;;19.00;58.90;;;;;;5019037;28;20022;-69
2023/11/19 08:45:31;;;;;;;0.40;0.40;;;19.00;59.00;;;;;;5018508;28;20022;-70
2023/11/19 08:47:57;;;;;;;0.40;0.40;;;19.00;58.90;;;;;;5015438;28;20050;-66
2023/11/19 08:50:23;;;;;;;0.50;0.50;;;19.00;59.00;;;;;;5033842;28;20514;-66
2023/11/19 08:52:49;;;;;;;0.40;0.40;;;19.00;58.90;;;;;;5017521;28;20018;-67
2023/11/19 08:55:15;;;;;;;0.50;0.50;;;19.00;59.00;;;;;;5017314;28;20397;-66
2023/11/19 08:57:40;;;;;;;0.40;0.40;;;19.00;58.90;;;;;;5018432;28;20033;-66
2023/11/19 09:00:08;;;;;;;0.30;0.30;;;19.00;58.90;;;;;;5019690;28;20029;-66
2023/11/19 09:02:37;;;;;;;0.45;0.45;;;19.00;58.90;;;;;;5017993;28;20482;-65
2023/11/19 09:05:03;;;;;;;;;;;19.00;59.00;;;;;;5034480;28;20135;-66
2023/11/19 09:07:29;;;;;;;0.43;0.40;;;19.00;58.90;;;;;;5015185;28;19909;-66
2023/11/19 09:09:55;;;;;;;0.50;0.50;;;19.00;58.90;;;;;;5015848;28;20032;-66
2023/11/19 09:12:20;;;;;;;0.40;0.40;;;19.00;58.90;;;;;;5023567;28;20080;-66
2023/11/19 09:14:46;;;;;;;0.40;0.40;;;19.00;58.90;;;;;;5022921;28;20462;-66
2023/11/19 09:17:17;;;;;;;0.52;0.45;;;19.00;58.90;;;;;;5020064;28;20072;-66
2023/11/19 09:19:43;;;;;;;0.30;0.30;;;19.00;58.90;;;;;;5036333;28;20036;-66
2023/11/19 09:22:09;;;;;;;0.40;0.40;;;19.00;58.90;;;;;;5021737;28;20386;-66
2023/11/19 09:24:34;;;;;;;0.65;0.40;;;19.00;58.90;;;;;;5021627;28;20552;-66
2023/11/19 09:27:00;;;;;;;0.40;0.40;;;19.00;58.90;;;;;;5022831;28;20032;-66
2023/11/19 09:29:26;;;;;;;0.40;0.40;;;19.00;58.90;;;;;;5021966;28;20036;-67
2023/11/19 09:31:51;;;;;;;0.30;0.30;;;19.00;58.80;;;;;;5024046;28;20025;-67
2023/11/19 09:34:17;;;;;;;0.35;0.35;;;19.00;58.80;;;;;;5023363;28;20030;-67
2023/11/19 09:36:44;;;;;;;0.50;0.50;;;19.00;58.80;;;;;;5023291;28;20084;-67
2023/11/19 09:39:14;;;;;;;0.57;0.47;;;19.00;58.80;;;;;;5019763;28;20022;-66
2023/11/19 09:41:41;;;;;;;0.50;0.50;;;19.00;58.80;;;;;;5021832;28;20026;-66
2023/11/19 09:44:09;;;;;;;0.30;0.30;;;19.00;58.80;;;;;;5021016;28;20104;-66
2023/11/19 09:46:35;;;;;;;0.40;0.40;;;19.00;58.80;;;;;;5020779;28;20021;-66
2023/11/19 09:49:04;;;;;;;0.63;0.40;;;19.00;58.80;;;;;;5022981;28;20052;-66
2023/11/19 09:51:29;;;;;;;0.40;0.40;;;19.00;58.80;;;;;;5022459;28;20105;-66
2023/11/19 09:53:55;;;;;;;0.43;0.43;;;19.00;58.80;;;;;;5017930;28;20116;-66
2023/11/19 09:56:22;;;;;;;0.85;0.40;;;19.00;59.30;;;;;;5021998;28;20426;-66
2023/11/19 09:58:47;;;;;;;0.50;0.45;;;19.00;58.80;;;;;;5021069;28;20018;-67
2023/11/19 10:01:14;;;;;;;0.50;0.40;;;19.00;58.80;;;;;;5021482;28;20443;-67
2023/11/19 10:03:43;;;;;;;0.40;0.40;;;19.00;58.80;;;;;;5019845;28;20026;-67
2023/11/19 10:06:10;;;;;;;0.40;0.40;;;19.00;58.80;;;;;;5022594;28;20057;-66
2023/11/19 10:08:39;;;;;;;0.40;0.40;;;19.00;58.80;;;;;;5019821;28;20511;-67
2023/11/19 10:11:06;;;;;;;0.45;0.45;;;19.00;58.80;;;;;;5022151;28;20104;-66
2023/11/19 10:13:40;;;;;;;0.40;0.40;;;19.00;58.80;;;;;;5023317;28;20033;-67
2023/11/19 10:16:12;;;;;;;0.40;0.40;;;19.00;58.80;;;;;;5023255;28;20026;-66
2023/11/19 10:18:42;;;;;;;0.40;0.40;;;19.00;58.80;;;;;;5020159;28;20063;-66
2023/11/19 10:21:16;;;;;;;0.38;0.38;;;19.00;58.80;;;;;;5023726;28;20037;-67
2023/11/19 10:23:53;;;;;;;0.50;0.50;;;19.00;58.80;;;;;;5019072;28;20030;-66
2023/11/19 10:26:20;;;;;;;0.30;0.30;;;19.00;58.70;;;;;;5019286;28;20434;-66
2023/11/19 10:28:46;;;;;;;0.50;0.40;;;19.00;58.70;;;;;;5019594;28;20037;-66
2023/11/19 10:31:15;;;;;;;0.35;0.35;;;19.00;58.70;;;;;;5005661;28;20054;-66
2023/11/19 10:33:40;;;;;;;0.47;0.40;;;19.00;58.70;;;;;;5021864;28;20022;-66
2023/11/19 10:36:07;;;;;;;0.50;0.50;;;19.00;58.80;;;;;;5020108;28;20097;-66
2023/11/19 10:38:33;;;;;;;0.40;0.40;;;19.00;58.80;;;;;;5020072;28;20091;-66
2023/11/19 10:40:59;;;;;;;0.40;0.40;;;19.00;58.80;;;;;;5018327;28;20021;-66
2023/11/19 10:43:25;;;;;;;0.40;0.40;;;19.00;58.80;;;;;;5017705;28;20033;-66
2023/11/19 10:45:52;;;;;;;0.40;0.40;;;19.00;58.70;;;;;;5019927;28;20048;-66
2023/11/19 10:48:17;;;;;;;0.40;0.40;;;19.00;58.70;;;;;;5021595;28;20107;-67
2023/11/19 10:50:45;;;;;;;0.40;0.40;;;19.00;58.80;;;;;;5021507;28;20059;-67
2023/11/19 10:53:15;;;;;;;0.45;0.45;;;19.00;58.80;;;;;;5020293;28;20036;-66
2023/11/19 10:55:41;;;;;;;0.30;0.30;;;19.00;58.70;;;;;;5016177;28;20053;-67
2023/11/19 10:58:10;;;;;;;0.50;0.50;;;19.00;58.70;;;;;;5020225;28;20034;-67
2023/11/19 11:00:47;;;;;;;0.65;0.55;;;19.00;58.70;;;;;;5020228;28;20037;-67
2023/11/19 11:03:22;;;;;;;0.40;0.40;;;19.00;58.80;;;;;;5022567;28;20030;-66
2023/11/19 11:05:49;;;;;;;0.40;0.40;;;19.00;58.80;;;;;;5022563;28;20025;-66
2023/11/19 11:08:15;;;;;;;0.40;0.40;;;19.00;58.80;;;;;;5022214;28;20030;-66
2023/11/19 11:10:54;;;;;;;0.38;0.38;;;19.00;58.80;;;;;;5019631;28;20026;-65
2023/11/19 11:13:23;;;;;;;0.35;0.30;;;19.00;58.80;;;;;;5021334;28;20026;-66
2023/11/19 11:15:50;;;;;;;0.40;0.40;;;19.00;58.80;;;;;;5019113;28;20033;-65
2023/11/19 11:18:19;;;;;;;0.30;0.30;;;19.00;58.80;;;;;;5018126;28;20076;-65
2023/11/19 11:20:46;;;;;;;0.52;0.45;;;19.00;58.70;;;;;;5021436;28;20473;-66
2023/11/19 11:23:54;;;;;;;0.40;0.40;;;19.00;58.70;;;;;;5020338;28;20040;-65
2023/11/19 11:26:37;;;;;;;0.57;0.43;;;19.00;58.70;;;;;;5019691;28;20108;-65
2023/11/19 11:29:16;;;;;;;0.47;0.40;;;19.00;58.70;;;;;;5020769;28;20035;-65
2023/11/19 11:31:53;;;;;;;0.38;0.38;;;19.10;58.80;;;;;;5019833;28;20017;-67
2023/11/19 11:34:51;;;;;;;0.30;0.30;;;19.00;58.70;;;;;;5020528;28;20042;-66
2023/11/19 11:37:38;;;;;;;0.60;0.47;;;19.00;58.70;;;;;;5020052;28;20117;-66
2023/11/19 11:40:10;;;;;;;0.30;0.30;;;19.00;58.70;;;;;;5015422;28;20387;-66
2023/11/19 11:42:39;;;;;;;0.30;0.30;;;19.00;58.70;;;;;;5020065;28;20116;-66
2023/11/19 11:45:09;;;;;;;0.40;0.40;;;19.10;58.80;;;;;;5019278;28;20421;-66
2023/11/19 11:47:46;;;;;;;0.40;0.40;;;19.10;58.80;;;;;;5020439;28;20070;-65
2023/11/19 11:50:18;;;;;;;0.40;0.40;;;19.00;58.80;;;;;;5019542;28;20088;-65
2023/11/19 11:52:56;;;;;;;0.40;0.30;;;19.00;58.70;;;;;;5020685;28;20025;-65
2023/11/19 11:55:52;;;;;;;0.55;0.47;;;19.10;58.80;;;;;;5017215;28;20438;-66
2023/11/19 11:58:22;;;;;;;0.60;0.40;;;19.10;58.80;;;;;;5019638;28;20029;-67
2023/11/19 12:00:48;;;;;;;0.40;0.40;;;19.10;58.80;;;;;;5016804;28;20452;-67
2023/11/19 12:03:14;;;;;;;0.35;0.35;;;19.10;58.80;;;;;;5018118;28;20101;-67
2023/11/19 12:05:44;;;;;;;0.30;0.30;;;19.10;58.80;;;;;;5019257;28;20104;-67
2023/11/19 12:08:11;;;;;;;0.40;0.40;;;19.00;58.80;;;;;;5020105;28;20033;-67
2023/11/19 12:10:45;;;;;;;0.50;0.47;;;19.10;58.80;;;;;;5016571;28;20026;-67
2023/11/19 12:13:13;;;;;;;0.52;0.40;;;19.10;58.80;;;;;;5020053;28;20389;-67
2023/11/19 12:15:57;;;;;;;0.40;0.40;;;19.10;58.80;;;;;;5021202;28;20025;-66
2023/11/19 12:18:32;;;;;;;0.40;0.40;;;19.10;58.80;;;;;;5018777;28;20083;-70
2023/11/19 12:21:01;;;;;;;0.40;0.40;;;19.10;58.80;;;;;;5017491;28;20149;-69
2023/11/19 12:23:31;;;;;;;0.40;0.40;;;19.10;58.80;;;;;;5019697;28;20390;-69
2023/11/19 12:25:58;;;;;;;0.40;0.40;;;19.00;58.70;;;;;;5015450;28;20121;-69
2023/11/19 12:28:26;;;;;;;0.40;0.40;;;19.10;58.80;;;;;;5015137;28;20037;-69
2023/11/19 12:30:53;;;;;;;0.38;0.38;;;19.10;58.80;;;;;;5018243;28;20040;-69
2023/11/19 12:33:19;;;;;;;0.30;0.30;;;19.10;58.80;;;;;;5021178;28;20026;-69
2023/11/19 12:35:49;;;;;;;0.40;0.40;;;19.10;58.80;;;;;;5019249;28;20033;-69
2023/11/19 12:38:25;;;;;;;0.40;0.40;;;19.10;58.80;;;;;;5018332;28;20045;-69
2023/11/19 12:41:04;;;;;;;0.30;0.30;;;19.10;58.80;;;;;;5018087;28;20426;-69
2023/11/19 12:43:30;;;;;;;0.30;0.30;;;19.10;58.80;;;;;;5017270;28;20032;-69
2023/11/19 12:45:56;;;;;;;0.32;0.32;;;19.10;58.70;;;;;;5017697;28;20025;-69
2023/11/19 12:48:22;;;;;;;0.30;0.30;;;19.10;58.70;;;;;;5018254;28;20033;-69